sensor_id;sensor_type;location;lat;lon;timestamp;pressure;altitude;pressure_sealevel;temperature;humidity
76553;BME280;65395;53.168;18.156;2024-03-29T00:01:44;99177.11;;;8.52;68.38
76553;BME280;65395;53.168;18.156;2024-03-29T00:04:10;99180.45;;;8.49;68.23
76553;BME280;65395;53.168;18.156;2024-03-29T00:06:37;99189.27;;;8.46;68.43
76553;BME280;65395;53.168;18.156;2024-03-29T00:09:04;99192.73;;;8.41;68.55
76553;BME280;65395;53.168;18.156;2024-03-29T00:11:31;99202.28;;;8.35;68.68
76553;BME280;65395;53.168;18.156;2024-03-29T00:13:58;99206.84;;;8.27;68.84
76553;BME280;65395;53.168;18.156;2024-03-29T00:16:25;99210.88;;;8.19;69.04
76553;BME280;65395;53.168;18.156;2024-03-29T00:18:53;99214.48;;;8.10;69.12
76553;BME280;65395;53.168;18.156;2024-03-29T00:21:19;99219.84;;;8.01;69.27
76553;BME280;65395;53.168;18.156;2024-03-29T00:23:46;99228.36;;;7.95;69.45
76553;BME280;65395;53.168;18.156;2024-03-29T00:26:14;99233.70;;;7.87;69.66
76553;BME280;65395;53.168;18.156;2024-03-29T00:28:41;99238.84;;;7.81;69.75
76553;BME280;65395;53.168;18.156;2024-03-29T00:31:08;99244.84;;;7.74;69.91
76553;BME280;65395;53.168;18.156;2024-03-29T00:33:35;99253.16;;;7.68;70.11
76553;BME280;65395;53.168;18.156;2024-03-29T00:36:02;99265.41;;;7.63;70.36
76553;BME280;65395;53.168;18.156;2024-03-29T00:38:29;99268.80;;;7.59;70.53
76553;BME280;65395;53.168;18.156;2024-03-29T00:40:56;99278.09;;;7.56;70.68
76553;BME280;65395;53.168;18.156;2024-03-29T00:43:23;99281.05;;;7.55;70.60
76553;BME280;65395;53.168;18.156;2024-03-29T00:45:49;99281.92;;;7.52;70.67
76553;BME280;65395;53.168;18.156;2024-03-29T00:48:17;99288.35;;;7.49;70.74
76553;BME280;65395;53.168;18.156;2024-03-29T00:50:46;99289.09;;;7.44;70.70
76553;BME280;65395;53.168;18.156;2024-03-29T00:53:13;99301.29;;;7.40;70.93
76553;BME280;65395;53.168;18.156;2024-03-29T00:55:39;99312.30;;;7.35;71.02
76553;BME280;65395;53.168;18.156;2024-03-29T00:58:06;99315.38;;;7.31;71.13
76553;BME280;65395;53.168;18.156;2024-03-29T01:00:33;99318.73;;;7.27;71.25
76553;BME280;65395;53.168;18.156;2024-03-29T01:03:00;99314.40;;;7.23;71.40
76553;BME280;65395;53.168;18.156;2024-03-29T01:05:27;99320.58;;;7.19;71.47
76553;BME280;65395;53.168;18.156;2024-03-29T01:07:54;99324.46;;;7.16;71.51
76553;BME280;65395;53.168;18.156;2024-03-29T01:10:20;99332.92;;;7.12;71.69
76553;BME280;65395;53.168;18.156;2024-03-29T01:12:49;99339.39;;;7.08;71.75
76553;BME280;65395;53.168;18.156;2024-03-29T01:15:15;99352.45;;;7.03;71.75
76553;BME280;65395;53.168;18.156;2024-03-29T01:17:42;99349.52;;;6.98;72.09
76553;BME280;65395;53.168;18.156;2024-03-29T01:20:09;99347.04;;;6.93;72.06
76553;BME280;65395;53.168;18.156;2024-03-29T01:22:38;99356.63;;;6.87;72.11
76553;BME280;65395;53.168;18.156;2024-03-29T01:25:04;99366.13;;;6.81;72.19
76553;BME280;65395;53.168;18.156;2024-03-29T01:27:34;99378.33;;;6.76;72.33
76553;BME280;65395;53.168;18.156;2024-03-29T01:30:01;99380.86;;;6.70;72.70
76553;BME280;65395;53.168;18.156;2024-03-29T01:32:28;99382.93;;;6.64;72.71
76553;BME280;65395;53.168;18.156;2024-03-29T01:34:55;99386.27;;;6.60;72.88
76553;BME280;65395;53.168;18.156;2024-03-29T01:37:21;99394.87;;;6.56;72.85
76553;BME280;65395;53.168;18.156;2024-03-29T01:39:48;99407.25;;;6.51;73.07
76553;BME280;65395;53.168;18.156;2024-03-29T01:42:15;99409.84;;;6.47;73.25
76553;BME280;65395;53.168;18.156;2024-03-29T01:44:42;99411.52;;;6.44;73.30
76553;BME280;65395;53.168;18.156;2024-03-29T01:47:09;99420.77;;;6.42;73.58
76553;BME280;65395;53.168;18.156;2024-03-29T01:49:36;99427.70;;;6.40;73.60
76553;BME280;65395;53.168;18.156;2024-03-29T01:52:04;99429.58;;;6.39;73.64
76553;BME280;65395;53.168;18.156;2024-03-29T01:54:32;99444.13;;;6.37;73.95
76553;BME280;65395;53.168;18.156;2024-03-29T01:56:59;99452.82;;;6.38;73.81
76553;BME280;65395;53.168;18.156;2024-03-29T01:59:28;99456.16;;;6.35;73.70
76553;BME280;65395;53.168;18.156;2024-03-29T02:01:55;99456.54;;;6.31;73.93
76553;BME280;65395;53.168;18.156;2024-03-29T02:04:23;99455.48;;;6.28;74.12
76553;BME280;65395;53.168;18.156;2024-03-29T02:06:50;99459.53;;;6.27;74.41
76553;BME280;65395;53.168;18.156;2024-03-29T02:09:17;99464.22;;;6.25;74.23
76553;BME280;65395;53.168;18.156;2024-03-29T02:11:44;99481.21;;;6.22;74.35
76553;BME280;65395;53.168;18.156;2024-03-29T02:14:10;99484.65;;;6.20;74.66
76553;BME280;65395;53.168;18.156;2024-03-29T02:16:37;99489.44;;;6.18;74.55
76553;BME280;65395;53.168;18.156;2024-03-29T02:19:04;99494.91;;;6.16;74.53
76553;BME280;65395;53.168;18.156;2024-03-29T02:21:33;99492.91;;;6.14;74.57
76553;BME280;65395;53.168;18.156;2024-03-29T02:24:06;99498.05;;;6.12;74.68
76553;BME280;65395;53.168;18.156;2024-03-29T02:26:33;99503.91;;;6.11;74.65
76553;BME280;65395;53.168;18.156;2024-03-29T02:29:02;99504.27;;;6.10;74.87
76553;BME280;65395;53.168;18.156;2024-03-29T02:31:29;99513.19;;;6.08;74.75
76553;BME280;65395;53.168;18.156;2024-03-29T02:33:56;99511.80;;;6.06;75.07
76553;BME280;65395;53.168;18.156;2024-03-29T02:36:23;99512.41;;;6.06;74.98
76553;BME280;65395;53.168;18.156;2024-03-29T02:38:50;99515.17;;;6.05;74.92
76553;BME280;65395;53.168;18.156;2024-03-29T02:41:17;99524.02;;;6.03;75.07
76553;BME280;65395;53.168;18.156;2024-03-29T02:43:44;99520.84;;;6.00;75.03
76553;BME280;65395;53.168;18.156;2024-03-29T02:46:10;99529.80;;;5.98;75.11
76553;BME280;65395;53.168;18.156;2024-03-29T02:48:37;99526.80;;;5.96;75.13
76553;BME280;65395;53.168;18.156;2024-03-29T02:51:04;99526.02;;;5.94;75.30
76553;BME280;65395;53.168;18.156;2024-03-29T02:53:31;99530.86;;;5.93;75.38
76553;BME280;65395;53.168;18.156;2024-03-29T02:55:58;99536.89;;;5.91;75.35
76553;BME280;65395;53.168;18.156;2024-03-29T02:58:24;99543.05;;;5.88;75.26
76553;BME280;65395;53.168;18.156;2024-03-29T03:00:51;99542.23;;;5.86;75.47
76553;BME280;65395;53.168;18.156;2024-03-29T03:03:18;99550.67;;;5.83;75.42
76553;BME280;65395;53.168;18.156;2024-03-29T03:05:45;99553.59;;;5.81;75.57
76553;BME280;65395;53.168;18.156;2024-03-29T03:08:12;99554.29;;;5.77;75.53
76553;BME280;65395;53.168;18.156;2024-03-29T03:10:49;99555.77;;;5.72;75.62
76553;BME280;65395;53.168;18.156;2024-03-29T03:13:22;99554.46;;;5.68;75.69
76553;BME280;65395;53.168;18.156;2024-03-29T03:15:49;99559.82;;;5.65;75.80
76553;BME280;65395;53.168;18.156;2024-03-29T03:18:16;99562.79;;;5.61;75.85
76553;BME280;65395;53.168;18.156;2024-03-29T03:20:50;99565.25;;;5.57;75.84
76553;BME280;65395;53.168;18.156;2024-03-29T03:23:18;99565.11;;;5.51;75.98
76553;BME280;65395;53.168;18.156;2024-03-29T03:25:46;99572.68;;;5.45;75.96
76553;BME280;65395;53.168;18.156;2024-03-29T03:28:19;99570.55;;;5.39;76.09
76553;BME280;65395;53.168;18.156;2024-03-29T03:30:47;99569.14;;;5.34;76.24
76553;BME280;65395;53.168;18.156;2024-03-29T03:33:14;99567.71;;;5.29;76.40
76553;BME280;65395;53.168;18.156;2024-03-29T03:35:42;99572.73;;;5.25;76.41
76553;BME280;65395;53.168;18.156;2024-03-29T03:38:09;99575.27;;;5.21;76.69
76553;BME280;65395;53.168;18.156;2024-03-29T03:40:36;99573.35;;;5.19;76.82
76553;BME280;65395;53.168;18.156;2024-03-29T03:43:04;99561.65;;;5.13;76.93
76553;BME280;65395;53.168;18.156;2024-03-29T03:45:40;99561.02;;;5.15;76.95
76553;BME280;65395;53.168;18.156;2024-03-29T03:48:08;99559.44;;;5.11;76.90
76553;BME280;65395;53.168;18.156;2024-03-29T03:50:37;99566.75;;;5.05;76.89
76553;BME280;65395;53.168;18.156;2024-03-29T03:53:04;99578.29;;;4.99;76.96
76553;BME280;65395;53.168;18.156;2024-03-29T03:55:31;99581.20;;;4.93;77.20
76553;BME280;65395;53.168;18.156;2024-03-29T03:57:57;99584.70;;;4.88;77.39
76553;BME280;65395;53.168;18.156;2024-03-29T04:00:25;99585.93;;;4.84;77.86
76553;BME280;65395;53.168;18.156;2024-03-29T04:02:52;99587.23;;;4.82;77.78
76553;BME280;65395;53.168;18.156;2024-03-29T04:05:20;99592.58;;;4.81;77.99
76553;BME280;65395;53.168;18.156;2024-03-29T04:07:47;99594.42;;;4.80;78.10
76553;BME280;65395;53.168;18.156;2024-03-29T04:10:14;99592.23;;;4.79;78.22
76553;BME280;65395;53.168;18.156;2024-03-29T04:12:41;99586.70;;;4.79;78.38
76553;BME280;65395;53.168;18.156;2024-03-29T04:15:08;99588.27;;;4.78;78.26
76553;BME280;65395;53.168;18.156;2024-03-29T04:17:35;99593.92;;;4.75;78.32
76553;BME280;65395;53.168;18.156;2024-03-29T04:20:02;99598.66;;;4.71;78.14
76553;BME280;65395;53.168;18.156;2024-03-29T04:22:30;99601.92;;;4.66;78.28
76553;BME280;65395;53.168;18.156;2024-03-29T04:24:57;99591.70;;;4.57;78.47
76553;BME280;65395;53.168;18.156;2024-03-29T04:27:25;99594.98;;;4.59;78.43
76553;BME280;65395;53.168;18.156;2024-03-29T04:29:53;99596.56;;;4.56;78.67
76553;BME280;65395;53.168;18.156;2024-03-29T04:32:20;99602.57;;;4.54;78.63
76553;BME280;65395;53.168;18.156;2024-03-29T04:34:48;99600.66;;;4.51;78.81
76553;BME280;65395;53.168;18.156;2024-03-29T04:37:15;99604.15;;;4.51;78.84
76553;BME280;65395;53.168;18.156;2024-03-29T04:39:43;99612.92;;;4.52;78.87
76553;BME280;65395;53.168;18.156;2024-03-29T04:42:11;99607.45;;;4.52;78.81
76553;BME280;65395;53.168;18.156;2024-03-29T04:44:38;99612.09;;;4.52;78.88
76553;BME280;65395;53.168;18.156;2024-03-29T04:47:06;99620.17;;;4.51;78.71
76553;BME280;65395;53.168;18.156;2024-03-29T04:49:33;99617.11;;;4.50;78.87
76553;BME280;65395;53.168;18.156;2024-03-29T04:52:01;99614.41;;;4.47;78.97
76553;BME280;65395;53.168;18.156;2024-03-29T04:54:28;99624.50;;;4.46;79.02
76553;BME280;65395;53.168;18.156;2024-03-29T04:56:55;99622.90;;;4.42;79.04
76553;BME280;65395;53.168;18.156;2024-03-29T04:59:22;99625.48;;;4.39;79.14
76553;BME280;65395;53.168;18.156;2024-03-29T05:01:49;99631.63;;;4.38;79.41
76553;BME280;65395;53.168;18.156;2024-03-29T05:04:17;99634.67;;;4.36;79.47
76553;BME280;65395;53.168;18.156;2024-03-29T05:06:45;99639.21;;;4.34;79.47
76553;BME280;65395;53.168;18.156;2024-03-29T05:09:12;99639.10;;;4.35;79.76
76553;BME280;65395;53.168;18.156;2024-03-29T05:11:39;99637.58;;;4.37;79.88
76553;BME280;65395;53.168;18.156;2024-03-29T05:14:05;99638.41;;;4.41;80.00
76553;BME280;65395;53.168;18.156;2024-03-29T05:16:32;99631.54;;;4.44;80.01
76553;BME280;65395;53.168;18.156;2024-03-29T05:18:59;99624.00;;;4.48;80.02
76553;BME280;65395;53.168;18.156;2024-03-29T05:21:26;99636.87;;;4.53;79.95
76553;BME280;65395;53.168;18.156;2024-03-29T05:23:53;99651.89;;;4.57;79.97
76553;BME280;65395;53.168;18.156;2024-03-29T05:26:19;99644.91;;;4.62;80.11
76553;BME280;65395;53.168;18.156;2024-03-29T05:28:46;99637.51;;;4.69;80.14
76553;BME280;65395;53.168;18.156;2024-03-29T05:31:14;99629.78;;;4.77;80.11
76553;BME280;65395;53.168;18.156;2024-03-29T05:33:41;99629.31;;;4.86;80.22
76553;BME280;65395;53.168;18.156;2024-03-29T05:36:08;99626.64;;;4.95;80.02
76553;BME280;65395;53.168;18.156;2024-03-29T05:38:37;99632.89;;;5.03;80.08
76553;BME280;65395;53.168;18.156;2024-03-29T05:41:04;99635.30;;;5.14;79.99
76553;BME280;65395;53.168;18.156;2024-03-29T05:43:31;99633.45;;;5.24;79.93
76553;BME280;65395;53.168;18.156;2024-03-29T05:45:58;99635.66;;;5.34;79.91
76553;BME280;65395;53.168;18.156;2024-03-29T05:48:28;99648.67;;;5.46;79.81
76553;BME280;65395;53.168;18.156;2024-03-29T05:50:55;99653.60;;;5.57;79.70
76553;BME280;65395;53.168;18.156;2024-03-29T05:53:22;99656.41;;;5.69;79.46
76553;BME280;65395;53.168;18.156;2024-03-29T05:55:49;99659.86;;;5.79;79.28
76553;BME280;65395;53.168;18.156;2024-03-29T05:58:15;99669.94;;;5.88;79.12
76553;BME280;65395;53.168;18.156;2024-03-29T06:00:45;99675.45;;;5.96;79.06
76553;BME280;65395;53.168;18.156;2024-03-29T06:03:11;99678.11;;;6.03;78.99
76553;BME280;65395;53.168;18.156;2024-03-29T06:05:40;99681.92;;;6.17;78.72
76553;BME280;65395;53.168;18.156;2024-03-29T06:08:08;99682.35;;;6.26;78.56
76553;BME280;65395;53.168;18.156;2024-03-29T06:10:34;99682.91;;;6.36;78.36
76553;BME280;65395;53.168;18.156;2024-03-29T06:13:01;99695.71;;;6.46;78.13
76553;BME280;65395;53.168;18.156;2024-03-29T06:15:34;99701.23;;;6.56;78.01
76553;BME280;65395;53.168;18.156;2024-03-29T06:18:10;99704.98;;;6.66;77.77
76553;BME280;65395;53.168;18.156;2024-03-29T06:20:39;99701.04;;;6.76;77.50
76553;BME280;65395;53.168;18.156;2024-03-29T06:23:06;99695.36;;;6.85;77.31
76553;BME280;65395;53.168;18.156;2024-03-29T06:25:33;99692.05;;;6.96;77.02
76553;BME280;65395;53.168;18.156;2024-03-29T06:28:00;99698.13;;;7.07;76.82
76553;BME280;65395;53.168;18.156;2024-03-29T06:30:27;99698.92;;;7.18;76.42
76553;BME280;65395;53.168;18.156;2024-03-29T06:32:53;99700.57;;;7.29;76.37
76553;BME280;65395;53.168;18.156;2024-03-29T06:35:20;99707.54;;;7.39;75.73
76553;BME280;65395;53.168;18.156;2024-03-29T06:37:48;99713.63;;;7.48;75.61
76553;BME280;65395;53.168;18.156;2024-03-29T06:40:15;99722.30;;;7.57;75.31
76553;BME280;65395;53.168;18.156;2024-03-29T06:42:42;99722.62;;;7.66;74.84
76553;BME280;65395;53.168;18.156;2024-03-29T06:45:08;99721.84;;;7.76;74.85
76553;BME280;65395;53.168;18.156;2024-03-29T06:47:36;99730.27;;;7.83;74.81
76553;BME280;65395;53.168;18.156;2024-03-29T06:50:03;99726.23;;;7.92;74.11
76553;BME280;65395;53.168;18.156;2024-03-29T06:52:30;99717.02;;;8.03;74.03
76553;BME280;65395;53.168;18.156;2024-03-29T06:54:57;99706.59;;;8.12;74.02
76553;BME280;65395;53.168;18.156;2024-03-29T06:57:24;99705.19;;;8.20;73.58
76553;BME280;65395;53.168;18.156;2024-03-29T06:59:55;99703.80;;;8.30;73.36
76553;BME280;65395;53.168;18.156;2024-03-29T07:02:22;99697.63;;;8.39;72.98
76553;BME280;65395;53.168;18.156;2024-03-29T07:04:49;99689.95;;;8.49;72.43
76553;BME280;65395;53.168;18.156;2024-03-29T07:07:16;99682.27;;;8.59;72.34
76553;BME280;65395;53.168;18.156;2024-03-29T07:09:43;99681.25;;;8.70;71.42
76553;BME280;65395;53.168;18.156;2024-03-29T07:12:10;99677.00;;;8.81;70.96
76553;BME280;65395;53.168;18.156;2024-03-29T07:14:37;99680.60;;;8.92;71.16
76553;BME280;65395;53.168;18.156;2024-03-29T07:17:04;99688.36;;;9.04;70.84
76553;BME280;65395;53.168;18.156;2024-03-29T07:19:30;99700.27;;;9.16;69.81
76553;BME280;65395;53.168;18.156;2024-03-29T07:21:57;99712.73;;;9.28;69.67
76553;BME280;65395;53.168;18.156;2024-03-29T07:24:24;99719.87;;;9.38;69.41
76553;BME280;65395;53.168;18.156;2024-03-29T07:26:51;99717.98;;;9.48;69.45
76553;BME280;65395;53.168;18.156;2024-03-29T07:29:18;99718.54;;;9.58;69.10
76553;BME280;65395;53.168;18.156;2024-03-29T07:31:45;99727.64;;;9.67;67.91
76553;BME280;65395;53.168;18.156;2024-03-29T07:34:11;99725.14;;;9.76;68.29
76553;BME280;65395;53.168;18.156;2024-03-29T07:36:38;99730.09;;;9.86;68.03
76553;BME280;65395;53.168;18.156;2024-03-29T07:39:07;99738.10;;;9.94;67.76
76553;BME280;65395;53.168;18.156;2024-03-29T07:41:34;99742.63;;;10.02;66.87
76553;BME280;65395;53.168;18.156;2024-03-29T07:44:01;99746.06;;;10.10;65.42
76553;BME280;65395;53.168;18.156;2024-03-29T07:46:33;99743.24;;;10.16;66.15
76553;BME280;65395;53.168;18.156;2024-03-29T07:49:01;99751.09;;;10.24;66.05
76553;BME280;65395;53.168;18.156;2024-03-29T07:51:28;99754.71;;;10.32;65.31
76553;BME280;65395;53.168;18.156;2024-03-29T07:53:55;99758.42;;;10.41;64.70
76553;BME280;65395;53.168;18.156;2024-03-29T07:56:21;99760.63;;;10.49;64.54
76553;BME280;65395;53.168;18.156;2024-03-29T07:58:51;99754.17;;;10.58;64.25
76553;BME280;65395;53.168;18.156;2024-03-29T08:01:20;99754.98;;;10.67;63.81
76553;BME280;65395;53.168;18.156;2024-03-29T08:03:49;99765.38;;;10.75;63.73
76553;BME280;65395;53.168;18.156;2024-03-29T08:06:17;99771.70;;;10.85;63.51
76553;BME280;65395;53.168;18.156;2024-03-29T08:08:46;99769.14;;;10.93;62.16
76553;BME280;65395;53.168;18.156;2024-03-29T08:11:13;99762.10;;;10.99;62.76
76553;BME280;65395;53.168;18.156;2024-03-29T08:13:41;99766.05;;;11.06;61.69
76553;BME280;65395;53.168;18.156;2024-03-29T08:16:08;99766.80;;;11.15;61.44
76553;BME280;65395;53.168;18.156;2024-03-29T08:18:36;99767.52;;;11.24;61.82
76553;BME280;65395;53.168;18.156;2024-03-29T08:21:03;99767.02;;;11.33;61.88
76553;BME280;65395;53.168;18.156;2024-03-29T08:23:32;99770.72;;;11.43;61.08
76553;BME280;65395;53.168;18.156;2024-03-29T08:25:59;99776.08;;;11.56;60.04
76553;BME280;65395;53.168;18.156;2024-03-29T08:28:26;99779.65;;;11.67;59.87
76553;BME280;65395;53.168;18.156;2024-03-29T08:31:00;99785.89;;;11.80;60.16
76553;BME280;65395;53.168;18.156;2024-03-29T08:33:27;99789.86;;;11.98;59.12
76553;BME280;65395;53.168;18.156;2024-03-29T08:35:54;99785.03;;;12.12;59.18
76553;BME280;65395;53.168;18.156;2024-03-29T08:38:22;99782.27;;;12.24;58.41
76553;BME280;65395;53.168;18.156;2024-03-29T08:40:50;99781.77;;;12.36;59.63
76553;BME280;65395;53.168;18.156;2024-03-29T08:43:17;99778.55;;;12.50;58.12
76553;BME280;65395;53.168;18.156;2024-03-29T08:45:45;99777.83;;;12.59;57.37
76553;BME280;65395;53.168;18.156;2024-03-29T08:48:12;99775.30;;;12.65;57.32
76553;BME280;65395;53.168;18.156;2024-03-29T08:50:39;99787.89;;;12.72;56.19
76553;BME280;65395;53.168;18.156;2024-03-29T08:53:07;99786.58;;;12.79;56.06
76553;BME280;65395;53.168;18.156;2024-03-29T08:55:34;99785.69;;;12.88;56.22
76553;BME280;65395;53.168;18.156;2024-03-29T08:58:01;99795.73;;;12.95;55.70
76553;BME280;65395;53.168;18.156;2024-03-29T09:00:30;99790.71;;;12.99;54.73
76553;BME280;65395;53.168;18.156;2024-03-29T09:02:57;99788.51;;;12.98;55.34
76553;BME280;65395;53.168;18.156;2024-03-29T09:05:25;99794.61;;;12.99;55.29
76553;BME280;65395;53.168;18.156;2024-03-29T09:07:54;99795.02;;;13.02;54.92
76553;BME280;65395;53.168;18.156;2024-03-29T09:10:23;99792.46;;;13.09;55.32
76553;BME280;65395;53.168;18.156;2024-03-29T09:12:50;99795.20;;;13.13;54.88
76553;BME280;65395;53.168;18.156;2024-03-29T09:15:17;99803.86;;;13.22;54.21
76553;BME280;65395;53.168;18.156;2024-03-29T09:17:46;99803.80;;;13.25;53.85
76553;BME280;65395;53.168;18.156;2024-03-29T09:20:13;99799.61;;;13.28;54.39
76553;BME280;65395;53.168;18.156;2024-03-29T09:22:40;99807.30;;;13.40;55.27
76553;BME280;65395;53.168;18.156;2024-03-29T09:25:07;99806.47;;;13.54;54.46
76553;BME280;65395;53.168;18.156;2024-03-29T09:27:37;99807.15;;;13.67;53.19
76553;BME280;65395;53.168;18.156;2024-03-29T09:30:06;99799.45;;;13.70;53.56
76553;BME280;65395;53.168;18.156;2024-03-29T09:32:34;99809.92;;;13.75;53.65
76553;BME280;65395;53.168;18.156;2024-03-29T09:35:01;99816.48;;;13.85;53.00
76553;BME280;65395;53.168;18.156;2024-03-29T09:37:28;99816.70;;;13.94;52.39
76553;BME280;65395;53.168;18.156;2024-03-29T09:39:55;99808.92;;;14.01;52.54
76553;BME280;65395;53.168;18.156;2024-03-29T09:42:23;99810.09;;;14.11;52.51
76553;BME280;65395;53.168;18.156;2024-03-29T09:44:55;99818.23;;;14.21;52.10
76553;BME280;65395;53.168;18.156;2024-03-29T09:47:23;99829.63;;;14.30;51.65
76553;BME280;65395;53.168;18.156;2024-03-29T09:49:53;99838.73;;;14.37;50.76
76553;BME280;65395;53.168;18.156;2024-03-29T09:52:21;99844.21;;;14.36;50.34
76553;BME280;65395;53.168;18.156;2024-03-29T09:54:49;99842.48;;;14.41;50.24
76553;BME280;65395;53.168;18.156;2024-03-29T09:57:16;99840.66;;;14.48;50.33
76553;BME280;65395;53.168;18.156;2024-03-29T09:59:44;99827.66;;;14.54;50.12
76553;BME280;65395;53.168;18.156;2024-03-29T10:02:15;99832.44;;;14.63;49.31
76553;BME280;65395;53.168;18.156;2024-03-29T10:04:46;99832.66;;;14.68;49.06
76553;BME280;65395;53.168;18.156;2024-03-29T10:07:15;99839.69;;;14.74;49.45
76553;BME280;65395;53.168;18.156;2024-03-29T10:09:43;99843.65;;;14.82;49.25
76553;BME280;65395;53.168;18.156;2024-03-29T10:12:11;99852.96;;;14.89;48.45
76553;BME280;65395;53.168;18.156;2024-03-29T10:14:49;99852.78;;;14.88;47.57
76553;BME280;65395;53.168;18.156;2024-03-29T10:17:19;99840.62;;;14.82;46.75
76553;BME280;65395;53.168;18.156;2024-03-29T10:19:47;99839.68;;;14.77;46.86
76553;BME280;65395;53.168;18.156;2024-03-29T10:22:14;99838.09;;;14.74;47.06
76553;BME280;65395;53.168;18.156;2024-03-29T10:24:41;99851.59;;;14.79;47.46
76553;BME280;65395;53.168;18.156;2024-03-29T10:27:08;99854.78;;;14.82;46.65
76553;BME280;65395;53.168;18.156;2024-03-29T10:29:36;99858.17;;;14.79;46.64
76553;BME280;65395;53.168;18.156;2024-03-29T10:32:03;99853.20;;;14.75;46.66
76553;BME280;65395;53.168;18.156;2024-03-29T10:34:30;99854.26;;;14.77;47.55
76553;BME280;65395;53.168;18.156;2024-03-29T10:37:02;99849.65;;;14.85;47.17
76553;BME280;65395;53.168;18.156;2024-03-29T10:39:30;99841.57;;;14.91;47.25
76553;BME280;65395;53.168;18.156;2024-03-29T10:41:59;99841.91;;;14.99;46.08
76553;BME280;65395;53.168;18.156;2024-03-29T10:44:28;99837.66;;;15.04;45.66
76553;BME280;65395;53.168;18.156;2024-03-29T10:46:56;99855.16;;;15.14;46.01
76553;BME280;65395;53.168;18.156;2024-03-29T10:49:25;99862.06;;;15.21;45.08
76553;BME280;65395;53.168;18.156;2024-03-29T10:51:54;99864.91;;;15.25;45.26
76553;BME280;65395;53.168;18.156;2024-03-29T10:54:24;99870.92;;;15.28;44.24
76553;BME280;65395;53.168;18.156;2024-03-29T10:56:59;99865.27;;;15.32;44.29
76553;BME280;65395;53.168;18.156;2024-03-29T10:59:35;99865.41;;;15.40;44.76
76553;BME280;65395;53.168;18.156;2024-03-29T11:02:13;99859.70;;;15.51;44.00
76553;BME280;65395;53.168;18.156;2024-03-29T11:04:48;99851.20;;;15.59;44.61
76553;BME280;65395;53.168;18.156;2024-03-29T11:07:20;99851.68;;;15.70;43.46
76553;BME280;65395;53.168;18.156;2024-03-29T11:09:53;99849.00;;;15.78;43.73
76553;BME280;65395;53.168;18.156;2024-03-29T11:12:24;99844.33;;;15.88;43.52
76553;BME280;65395;53.168;18.156;2024-03-29T11:15:02;99853.35;;;15.98;42.89
76553;BME280;65395;53.168;18.156;2024-03-29T11:17:31;99845.61;;;16.08;42.96
76553;BME280;65395;53.168;18.156;2024-03-29T11:20:00;99850.70;;;16.14;41.84
76553;BME280;65395;53.168;18.156;2024-03-29T11:22:29;99836.90;;;16.11;42.16
76553;BME280;65395;53.168;18.156;2024-03-29T11:24:57;99833.23;;;16.10;41.60
76553;BME280;65395;53.168;18.156;2024-03-29T11:27:27;99832.15;;;16.07;41.46
76553;BME280;65395;53.168;18.156;2024-03-29T11:29:54;99831.21;;;16.03;41.44
76553;BME280;65395;53.168;18.156;2024-03-29T11:32:35;99824.37;;;16.09;41.97
76553;BME280;65395;53.168;18.156;2024-03-29T11:35:05;99812.86;;;16.16;41.84
76553;BME280;65395;53.168;18.156;2024-03-29T11:37:33;99814.63;;;16.23;41.38
76553;BME280;65395;53.168;18.156;2024-03-29T11:40:04;99803.48;;;16.29;41.30
76553;BME280;65395;53.168;18.156;2024-03-29T11:42:51;99814.33;;;16.35;40.71
76553;BME280;65395;53.168;18.156;2024-03-29T11:45:19;99816.85;;;16.38;41.01
76553;BME280;65395;53.168;18.156;2024-03-29T11:47:47;99815.35;;;16.40;40.66
76553;BME280;65395;53.168;18.156;2024-03-29T11:50:14;99815.95;;;16.45;41.30
76553;BME280;65395;53.168;18.156;2024-03-29T11:52:42;99827.99;;;16.52;39.97
76553;BME280;65395;53.168;18.156;2024-03-29T11:55:10;99828.66;;;16.46;40.26
76553;BME280;65395;53.168;18.156;2024-03-29T11:57:37;99816.90;;;16.41;39.58
76553;BME280;65395;53.168;18.156;2024-03-29T12:00:07;99813.82;;;16.36;39.82
76553;BME280;65395;53.168;18.156;2024-03-29T12:02:36;99806.07;;;16.48;40.01
76553;BME280;65395;53.168;18.156;2024-03-29T12:05:07;99824.22;;;16.66;39.24
76553;BME280;65395;53.168;18.156;2024-03-29T12:07:36;99824.80;;;16.84;39.27
76553;BME280;65395;53.168;18.156;2024-03-29T12:10:04;99824.23;;;16.96;38.96
76553;BME280;65395;53.168;18.156;2024-03-29T12:12:31;99821.15;;;17.05;38.73
76553;BME280;65395;53.168;18.156;2024-03-29T12:15:04;99824.40;;;17.14;38.30
76553;BME280;65395;53.168;18.156;2024-03-29T12:17:31;99831.20;;;17.15;37.42
76553;BME280;65395;53.168;18.156;2024-03-29T12:19:59;99828.38;;;17.15;38.15
76553;BME280;65395;53.168;18.156;2024-03-29T12:22:32;99832.55;;;17.22;37.95
76553;BME280;65395;53.168;18.156;2024-03-29T12:25:00;99844.20;;;17.25;37.48
76553;BME280;65395;53.168;18.156;2024-03-29T12:27:28;99838.50;;;17.30;37.38
76553;BME280;65395;53.168;18.156;2024-03-29T12:29:56;99842.88;;;17.31;36.69
76553;BME280;65395;53.168;18.156;2024-03-29T12:32:23;99837.02;;;17.35;37.18
76553;BME280;65395;53.168;18.156;2024-03-29T12:34:52;99826.15;;;17.46;37.38
76553;BME280;65395;53.168;18.156;2024-03-29T12:37:21;99823.79;;;17.61;37.18
76553;BME280;65395;53.168;18.156;2024-03-29T12:39:48;99836.46;;;17.70;36.58
76553;BME280;65395;53.168;18.156;2024-03-29T12:42:18;99830.48;;;17.72;36.40
76553;BME280;65395;53.168;18.156;2024-03-29T12:44:45;99824.17;;;17.73;36.13
76553;BME280;65395;53.168;18.156;2024-03-29T12:47:14;99826.11;;;17.74;37.05
76553;BME280;65395;53.168;18.156;2024-03-29T12:49:42;99819.37;;;17.81;36.64
76553;BME280;65395;53.168;18.156;2024-03-29T12:52:10;99823.23;;;17.83;35.83
76553;BME280;65395;53.168;18.156;2024-03-29T12:54:37;99816.34;;;17.77;35.57
76553;BME280;65395;53.168;18.156;2024-03-29T12:57:05;99817.60;;;17.72;35.45
76553;BME280;65395;53.168;18.156;2024-03-29T12:59:34;99814.96;;;17.81;35.60